Time;durP1;ratioP1;P1;durP2;ratioP2;P2;SDS_P1;SDS_P2;PMS_P1;PMS_P2;Temp;Humidity;BMP_temperature;BMP_pressure;BME280_temperature;BME280_humidity;BME280_pressure;Samples;Min_cycle;Max_cycle;Signal;HPM_P1;HPM_P2
2020/12/19 00:01:32;;;;;;;16.35;4.25;;;7.60;93.90;;;;;;4977811;28;20026;-76
2020/12/19 00:03:58;;;;;;;9.82;3.13;;;7.70;93.90;;;;;;4995738;28;20479;-76
2020/12/19 00:06:25;;;;;;;11.75;3.65;;;7.60;93.90;;;;;;4977998;28;20491;-76
2020/12/19 00:08:51;;;;;;;11.88;3.58;;;7.60;93.90;;;;;;4994972;28;20031;-76
2020/12/19 00:11:16;;;;;;;13.98;4.90;;;7.60;93.90;;;;;;4978188;28;20073;-76
2020/12/19 00:13:43;;;;;;;12.95;5.25;;;7.60;93.90;;;;;;4994815;28;20069;-76
2020/12/19 00:16:14;;;;;;;10.20;4.00;;;7.60;93.90;;;;;;4978247;28;20015;-76
2020/12/19 00:18:39;;;;;;;11.45;4.38;;;7.60;93.90;;;;;;4995035;28;20072;-76
2020/12/19 00:21:05;;;;;;;10.48;3.95;;;7.60;93.90;;;;;;4995375;28;20031;-76
2020/12/19 00:23:31;;;;;;;9.77;3.63;;;7.60;93.90;;;;;;4995377;28;20367;-77
2020/12/19 00:25:56;;;;;;;10.50;4.10;;;7.60;93.90;;;;;;4994581;28;20581;-76
2020/12/19 00:28:22;;;;;;;11.85;4.13;;;7.60;93.90;;;;;;4995272;28;20030;-76
2020/12/19 00:30:47;;;;;;;12.98;3.65;;;7.50;93.90;;;;;;4977110;28;20030;-76
2020/12/19 00:33:13;;;;;;;10.88;4.03;;;7.50;93.90;;;;;;4977698;28;20026;-76
2020/12/19 00:35:39;;;;;;;11.38;3.70;;;7.50;93.90;;;;;;4977169;28;20113;-77
2020/12/19 00:38:04;;;;;;;11.45;4.00;;;7.50;93.90;;;;;;4995313;28;20214;-76
2020/12/19 00:40:30;;;;;;;11.63;3.60;;;7.50;93.90;;;;;;4977602;28;20121;-75
2020/12/19 00:42:55;;;;;;;11.45;4.03;;;7.50;93.80;;;;;;4994212;28;20964;-76
2020/12/19 00:45:21;;;;;;;11.90;4.25;;;7.50;93.90;;;;;;4994928;28;20479;-75
2020/12/19 00:47:47;;;;;;;10.65;3.58;;;7.50;93.90;;;;;;4994420;28;20387;-76
2020/12/19 00:50:13;;;;;;;12.40;4.60;;;7.50;93.90;;;;;;4977159;28;20528;-76
2020/12/19 00:52:38;;;;;;;13.18;4.00;;;7.50;93.90;;;;;;4975698;28;20028;-77
2020/12/19 00:55:05;;;;;;;10.93;4.05;;;7.50;93.90;;;;;;4994429;28;20014;-76
2020/12/19 00:57:32;;;;;;;20.80;4.75;;;7.50;93.90;;;;;;4994517;28;20498;-76
2020/12/19 00:59:58;;;;;;;11.68;3.97;;;7.50;93.90;;;;;;4994096;28;20269;-76
2020/12/19 01:02:24;;;;;;;12.23;4.28;;;7.50;93.90;;;;;;4994618;28;20030;-76
2020/12/19 01:04:50;;;;;;;12.55;3.65;;;7.40;93.90;;;;;;4994008;28;20108;-76
2020/12/19 01:07:16;;;;;;;11.25;3.72;;;7.40;93.90;;;;;;4994528;28;20026;-76
2020/12/19 01:09:41;;;;;;;9.93;4.18;;;7.50;93.90;;;;;;4993965;28;20029;-76
2020/12/19 01:12:07;;;;;;;12.30;4.05;;;7.40;93.90;;;;;;4976916;28;20099;-76
2020/12/19 01:14:34;;;;;;;11.02;3.80;;;7.40;93.90;;;;;;4994444;28;20022;-76
2020/12/19 01:17:03;;;;;;;13.98;4.53;;;7.40;93.90;;;;;;4994237;28;20026;-76
2020/12/19 01:19:29;;;;;;;12.82;4.13;;;7.40;93.90;;;;;;4994307;28;20026;-75
2020/12/19 01:21:55;;;;;;;10.63;3.20;;;7.40;93.90;;;;;;4993599;28;20034;-76
2020/12/19 01:24:20;;;;;;;10.45;3.10;;;7.40;93.90;;;;;;4976884;28;20100;-76
2020/12/19 01:26:47;;;;;;;11.80;3.72;;;7.40;93.90;;;;;;4993652;28;20036;-76
2020/12/19 01:29:13;;;;;;;10.85;3.53;;;7.40;93.90;;;;;;4994103;28;20027;-75
2020/12/19 01:31:39;;;;;;;9.57;3.65;;;7.40;93.90;;;;;;4976605;28;20034;-76
2020/12/19 01:34:05;;;;;;;11.82;3.67;;;7.40;93.90;;;;;;4994086;28;20019;-77
2020/12/19 01:36:30;;;;;;;8.90;3.30;;;7.40;93.90;;;;;;4976485;28;20030;-76
2020/12/19 01:38:56;;;;;;;9.43;4.13;;;7.40;93.90;;;;;;4975907;28;20030;-76
2020/12/19 01:41:22;;;;;;;8.20;3.65;;;7.40;93.90;;;;;;4976462;28;20027;-76
2020/12/19 01:43:58;;;;;;;13.45;3.75;;;7.30;93.90;;;;;;4993333;28;20022;-75
2020/12/19 01:46:48;;;;;;;11.02;4.50;;;7.40;93.90;;;;;;4993852;28;20153;-77
2020/12/19 01:49:14;;;;;;;9.43;4.25;;;7.40;93.90;;;;;;4976318;28;20117;-76
2020/12/19 01:51:40;;;;;;;7.57;3.03;;;7.30;93.90;;;;;;4976314;28;20518;-76
2020/12/19 01:54:09;;;;;;;7.95;3.05;;;7.30;93.90;;;;;;4975929;28;20022;-75
2020/12/19 01:56:44;;;;;;;9.43;3.67;;;7.30;93.90;;;;;;4993506;28;20026;-77
2020/12/19 01:59:11;;;;;;;12.18;3.75;;;7.30;93.90;;;;;;4954647;28;20039;-76
2020/12/19 02:01:44;;;;;;;9.32;3.70;;;7.30;93.90;;;;;;4955019;28;20024;-76
2020/12/19 02:04:10;;;;;;;9.75;4.10;;;7.30;93.90;;;;;;4954271;28;20447;-77
2020/12/19 02:06:36;;;;;;;9.27;3.92;;;7.30;93.90;;;;;;4954452;28;20032;-76
2020/12/19 02:09:03;;;;;;;11.57;4.07;;;7.30;93.90;;;;;;4952738;28;20094;-75
2020/12/19 02:11:28;;;;;;;11.35;3.67;;;7.30;93.90;;;;;;4954771;28;20460;-76
2020/12/19 02:13:54;;;;;;;11.93;4.68;;;7.30;93.90;;;;;;4952567;28;20027;-76
2020/12/19 02:16:20;;;;;;;10.25;3.85;;;7.30;93.90;;;;;;4953253;29;20027;-76
2020/12/19 02:18:46;;;;;;;11.23;3.50;;;7.30;93.90;;;;;;4953954;28;20136;-77
2020/12/19 02:21:12;;;;;;;12.32;4.45;;;7.30;93.90;;;;;;4954498;28;20027;-76
2020/12/19 02:23:38;;;;;;;9.88;3.63;;;7.30;93.90;;;;;;4954454;28;20015;-76
2020/12/19 02:26:04;;;;;;;13.43;4.15;;;7.30;93.90;;;;;;4952669;29;20642;-76
2020/12/19 02:28:30;;;;;;;11.07;4.43;;;7.30;93.90;;;;;;4953163;28;20031;-76
2020/12/19 02:30:55;;;;;;;11.43;4.45;;;7.20;93.80;;;;;;4953663;28;20475;-76
2020/12/19 02:33:21;;;;;;;9.93;4.20;;;7.20;93.90;;;;;;4954662;28;20482;-76
2020/12/19 02:35:47;;;;;;;12.25;4.07;;;7.20;93.90;;;;;;4953636;28;20142;-77
2020/12/19 02:38:12;;;;;;;10.35;3.78;;;7.20;93.90;;;;;;4953943;28;20035;-77
2020/12/19 02:40:38;;;;;;;10.57;3.60;;;7.20;93.90;;;;;;4954418;28;20035;-76
2020/12/19 02:43:03;;;;;;;10.25;3.58;;;7.20;93.90;;;;;;4953826;28;20035;-76
2020/12/19 02:45:29;;;;;;;12.18;4.15;;;7.10;93.90;;;;;;4954109;28;20094;-75
2020/12/19 02:47:55;;;;;;;11.23;3.88;;;7.10;93.90;;;;;;4953392;28;20027;-76
2020/12/19 02:50:20;;;;;;;10.73;3.85;;;7.10;93.90;;;;;;4952764;29;20056;-76
2020/12/19 02:52:46;;;;;;;10.93;3.80;;;7.10;93.90;;;;;;4953759;28;20034;-81
2020/12/19 02:55:11;;;;;;;11.25;4.05;;;7.10;93.90;;;;;;4953771;28;20054;-75
2020/12/19 02:57:37;;;;;;;13.32;4.18;;;7.10;93.90;;;;;;4967882;28;20364;-76
2020/12/19 03:00:05;;;;;;;13.73;4.15;;;7.10;93.90;;;;;;4992089;28;20030;-75
2020/12/19 03:02:30;;;;;;;10.35;3.97;;;7.10;93.90;;;;;;4992467;28;20030;-75
2020/12/19 03:04:56;;;;;;;13.93;4.05;;;7.10;93.90;;;;;;4974519;28;20022;-76
2020/12/19 03:07:22;;;;;;;10.52;3.92;;;7.10;93.90;;;;;;4975084;28;20096;-76
2020/12/19 03:09:47;;;;;;;11.00;3.95;;;7.00;93.90;;;;;;4991893;28;20368;-78
2020/12/19 03:12:13;;;;;;;9.60;3.38;;;7.00;93.90;;;;;;4992553;28;20027;-75
2020/12/19 03:14:39;;;;;;;14.00;4.22;;;7.00;93.90;;;;;;4992967;28;20022;-75
2020/12/19 03:17:04;;;;;;;11.38;3.90;;;7.00;93.80;;;;;;4997848;28;20394;-76
2020/12/19 03:19:30;;;;;;;7.75;3.30;;;7.00;93.90;;;;;;4999090;28;20037;-75
2020/12/19 03:21:55;;;;;;;11.13;3.75;;;7.00;93.80;;;;;;4998453;28;20030;-76
2020/12/19 03:24:21;;;;;;;8.48;3.90;;;7.00;93.90;;;;;;4981651;28;20061;-75
2020/12/19 03:26:47;;;;;;;9.02;3.63;;;7.00;93.90;;;;;;4981276;28;20026;-76
2020/12/19 03:29:12;;;;;;;13.82;4.60;;;7.00;93.80;;;;;;4980641;28;20053;-77
2020/12/19 03:31:38;;;;;;;13.35;4.00;;;6.90;93.80;;;;;;4981426;28;20121;-76
2020/12/19 03:34:04;;;;;;;16.92;3.95;;;7.00;93.90;;;;;;4980641;28;20018;-76
2020/12/19 03:36:31;;;;;;;11.50;4.57;;;7.00;93.90;;;;;;4998881;28;20037;-76
2020/12/19 03:38:56;;;;;;;10.90;3.67;;;6.90;93.90;;;;;;4980684;28;20462;-76
2020/12/19 03:41:22;;;;;;;8.95;3.13;;;6.90;93.80;;;;;;4999409;28;20045;-77
2020/12/19 03:43:48;;;;;;;9.40;3.78;;;6.90;93.80;;;;;;4999124;28;20478;-76
2020/12/19 03:46:15;;;;;;;12.93;4.05;;;6.90;93.80;;;;;;4998163;28;20097;-76
2020/12/19 03:48:41;;;;;;;13.55;3.92;;;6.90;93.80;;;;;;4998630;28;20026;-76
2020/12/19 03:51:07;;;;;;;11.73;3.13;;;6.90;93.90;;;;;;4980640;28;20033;-76
2020/12/19 03:53:33;;;;;;;11.50;4.28;;;6.90;93.90;;;;;;4998670;28;20094;-76
2020/12/19 03:55:58;;;;;;;11.43;3.67;;;6.90;93.90;;;;;;4998243;28;20045;-76
2020/12/19 03:58:24;;;;;;;8.82;4.38;;;6.90;93.80;;;;;;4998263;28;20046;-76
2020/12/19 04:00:50;;;;;;;10.25;3.30;;;6.90;93.80;;;;;;4981037;28;20069;-76
2020/12/19 04:03:15;;;;;;;16.05;3.67;;;6.90;93.80;;;;;;4997961;28;20032;-76
2020/12/19 04:05:41;;;;;;;13.07;3.33;;;6.90;93.80;;;;;;4998787;28;20027;-76
2020/12/19 04:08:06;;;;;;;12.43;5.00;;;6.90;93.80;;;;;;4998014;28;20054;-76
2020/12/19 04:10:32;;;;;;;10.40;3.38;;;6.90;93.80;;;;;;4980883;28;20121;-75
2020/12/19 04:12:58;;;;;;;9.75;3.72;;;6.90;93.80;;;;;;4980340;28;20113;-75
2020/12/19 04:15:23;;;;;;;10.65;3.72;;;6.90;93.80;;;;;;4981241;28;20022;-76
2020/12/19 04:17:51;;;;;;;11.43;4.50;;;6.90;93.80;;;;;;4998420;28;20049;-75
2020/12/19 04:20:16;;;;;;;14.07;4.10;;;6.90;93.90;;;;;;4980193;28;20030;-75
2020/12/19 04:22:42;;;;;;;12.98;3.88;;;6.90;93.80;;;;;;4998342;28;20030;-76
2020/12/19 04:25:11;;;;;;;8.10;3.42;;;6.90;93.80;;;;;;4997759;28;20027;-76
2020/12/19 04:27:40;;;;;;;12.57;3.97;;;6.90;93.80;;;;;;4996274;28;20081;-75
2020/12/19 04:30:08;;;;;;;11.38;3.72;;;6.90;93.80;;;;;;4977025;28;20107;-76
2020/12/19 04:32:34;;;;;;;9.43;3.08;;;6.90;93.80;;;;;;4977775;28;20386;-75
2020/12/19 04:34:59;;;;;;;14.45;5.80;;;6.90;93.80;;;;;;4994557;28;20022;-76
2020/12/19 04:37:25;;;;;;;12.35;5.20;;;6.90;93.80;;;;;;4994988;28;20090;-75
2020/12/19 04:39:52;;;;;;;10.75;4.88;;;6.90;93.80;;;;;;4977544;28;20540;-75
2020/12/19 04:42:19;;;;;;;11.77;4.03;;;6.90;93.80;;;;;;4994462;28;20459;-75
2020/12/19 04:44:45;;;;;;;12.55;4.00;;;6.90;93.80;;;;;;4995124;28;20058;-75
2020/12/19 04:47:12;;;;;;;13.13;3.85;;;6.90;93.80;;;;;;4994741;28;20022;-76
2020/12/19 04:49:38;;;;;;;10.07;3.88;;;6.90;93.80;;;;;;4994903;28;20027;-76
2020/12/19 04:52:04;;;;;;;10.13;3.10;;;6.90;93.80;;;;;;4994097;28;20034;-77
2020/12/19 04:54:30;;;;;;;9.38;3.65;;;6.90;93.80;;;;;;4994619;28;20023;-76
2020/12/19 04:56:58;;;;;;;8.02;2.97;;;6.90;93.80;;;;;;4994114;28;20057;-76
2020/12/19 04:59:24;;;;;;;8.48;3.22;;;6.90;93.80;;;;;;4977389;28;20061;-75
2020/12/19 05:01:50;;;;;;;11.70;3.83;;;6.90;93.80;;;;;;4994369;28;20054;-76
2020/12/19 05:04:15;;;;;;;10.02;3.78;;;6.90;93.80;;;;;;4994255;28;20475;-76
2020/12/19 05:06:41;;;;;;;10.00;3.28;;;6.90;93.80;;;;;;4977128;28;20022;-76
2020/12/19 05:09:09;;;;;;;12.50;3.92;;;6.90;93.80;;;;;;4993590;28;20076;-76
2020/12/19 05:11:35;;;;;;;12.57;3.72;;;6.90;93.80;;;;;;4994628;28;20026;-76
2020/12/19 05:14:04;;;;;;;11.07;4.03;;;6.90;93.80;;;;;;4993920;28;20113;-76
2020/12/19 05:16:31;;;;;;;11.07;3.45;;;6.90;93.80;;;;;;4976938;28;20374;-76
2020/12/19 05:18:57;;;;;;;11.07;3.90;;;6.90;93.90;;;;;;4976627;28;20109;-81
2020/12/19 05:21:25;;;;;;;9.82;3.20;;;6.90;93.90;;;;;;4976823;28;20165;-76
2020/12/19 05:23:51;;;;;;;13.20;3.95;;;6.90;93.90;;;;;;4994294;28;20029;-76
2020/12/19 05:26:17;;;;;;;12.65;3.90;;;6.90;93.90;;;;;;4976043;28;20019;-76
2020/12/19 05:28:43;;;;;;;11.60;4.13;;;6.90;93.80;;;;;;4976552;28;20026;-75
2020/12/19 05:31:10;;;;;;;9.25;3.20;;;6.90;93.90;;;;;;4993009;28;20061;-77
2020/12/19 05:33:41;;;;;;;11.18;3.50;;;6.80;93.80;;;;;;4976641;28;20049;-76
2020/12/19 05:36:18;;;;;;;11.90;3.13;;;6.90;93.90;;;;;;4993571;28;20026;-76
2020/12/19 05:38:44;;;;;;;11.25;3.47;;;6.80;93.90;;;;;;4992338;28;20470;-76
2020/12/19 05:41:13;;;;;;;11.27;4.00;;;6.80;93.80;;;;;;4993704;28;20034;-76
2020/12/19 05:43:52;;;;;;;12.63;3.47;;;6.90;93.90;;;;;;4976503;28;20081;-76
2020/12/19 05:46:34;;;;;;;15.02;4.07;;;6.90;93.80;;;;;;4993276;28;20018;-76
2020/12/19 05:49:02;;;;;;;11.55;3.53;;;6.90;93.80;;;;;;4993221;28;20027;-77
2020/12/19 05:51:30;;;;;;;11.65;4.00;;;6.90;93.80;;;;;;4993443;28;20023;-76
2020/12/19 05:54:06;;;;;;;12.93;4.15;;;6.90;93.90;;;;;;4993858;28;20371;-76
2020/12/19 05:56:44;;;;;;;9.95;4.03;;;6.90;93.80;;;;;;4993556;28;20109;-76
2020/12/19 05:59:11;;;;;;;7.25;3.22;;;6.80;93.80;;;;;;4993198;28;20112;-76
2020/12/19 06:01:42;;;;;;;7.35;3.15;;;6.80;93.80;;;;;;4993715;28;20474;-76
2020/12/19 06:04:09;;;;;;;14.70;4.63;;;6.80;93.80;;;;;;4993021;28;20023;-76
2020/12/19 06:06:43;;;;;;;11.27;4.00;;;6.80;93.80;;;;;;4993176;28;20474;-76
2020/12/19 06:09:10;;;;;;;13.07;3.70;;;6.90;93.90;;;;;;4992535;28;20030;-76
2020/12/19 06:11:59;;;;;;;9.70;3.53;;;6.80;93.80;;;;;;4992091;28;20026;-75
2020/12/19 06:14:30;;;;;;;13.35;3.70;;;6.80;93.90;;;;;;4992923;28;20026;-76
2020/12/19 06:17:07;;;;;;;11.85;3.50;;;6.80;93.80;;;;;;4992154;28;20032;-76
2020/12/19 06:19:33;;;;;;;10.23;3.50;;;6.80;93.90;;;;;;4976086;28;20378;-76
2020/12/19 06:21:59;;;;;;;10.52;3.85;;;6.80;93.90;;;;;;4993345;28;20031;-78
2020/12/19 06:24:41;;;;;;;9.70;3.50;;;6.80;93.90;;;;;;4991345;28;20026;-76
2020/12/19 06:27:22;;;;;;;9.63;3.83;;;6.80;93.80;;;;;;4975227;28;20030;-76
2020/12/19 06:29:49;;;;;;;9.25;3.30;;;6.70;93.80;;;;;;4993340;28;20031;-77
2020/12/19 06:32:22;;;;;;;11.05;3.40;;;6.70;93.80;;;;;;4975038;28;20379;-77
2020/12/19 06:35:06;;;;;;;12.95;3.53;;;6.70;93.80;;;;;;4993298;28;20150;-77
2020/12/19 06:37:34;;;;;;;9.00;3.55;;;6.70;93.80;;;;;;4975521;28;20037;-77
2020/12/19 06:40:10;;;;;;;9.57;3.20;;;6.70;93.90;;;;;;4991627;28;20080;-76
2020/12/19 06:42:36;;;;;;;12.00;3.85;;;6.70;93.80;;;;;;4992862;28;20037;-76
2020/12/19 06:45:20;;;;;;;12.88;4.13;;;6.70;93.90;;;;;;4993161;28;20026;-76
2020/12/19 06:47:46;;;;;;;8.98;3.45;;;6.70;93.80;;;;;;4992819;28;20109;-75
2020/12/19 06:50:12;;;;;;;8.70;3.53;;;6.60;93.80;;;;;;4991263;28;20386;-76
2020/12/19 06:52:38;;;;;;;10.70;3.63;;;6.60;93.80;;;;;;4975320;28;20026;-75
2020/12/19 06:55:20;;;;;;;9.95;3.60;;;6.60;93.80;;;;;;4992747;28;20030;-81
2020/12/19 06:57:51;;;;;;;11.00;3.15;;;6.60;93.80;;;;;;4971717;28;20137;-76
2020/12/19 07:00:24;;;;;;;9.63;4.07;;;6.60;93.80;;;;;;4972734;28;20027;-76
2020/12/19 07:02:50;;;;;;;8.95;3.00;;;6.60;93.80;;;;;;4971956;28;20097;-76
2020/12/19 07:05:27;;;;;;;10.60;4.22;;;6.60;93.80;;;;;;4971094;28;20015;-76
2020/12/19 07:08:13;;;;;;;11.98;3.72;;;6.60;93.80;;;;;;4971615;28;20526;-75
2020/12/19 07:10:39;;;;;;;10.63;4.10;;;6.60;93.80;;;;;;4972802;28;20027;-76
2020/12/19 07:13:05;;;;;;;9.20;3.40;;;6.50;93.80;;;;;;4971861;28;20023;-76
2020/12/19 07:15:45;;;;;;;12.13;3.33;;;6.50;93.80;;;;;;4972779;28;20097;-76
2020/12/19 07:18:37;;;;;;;7.65;3.20;;;6.60;93.80;;;;;;4972534;28;20038;-77
2020/12/19 07:21:07;;;;;;;13.82;3.97;;;6.50;93.80;;;;;;4973096;28;20030;-77
2020/12/19 07:23:35;;;;;;;12.90;4.32;;;6.50;93.80;;;;;;4971889;28;20034;-76
2020/12/19 07:26:01;;;;;;;10.93;3.75;;;6.50;93.80;;;;;;4971869;28;20027;-75
2020/12/19 07:28:30;;;;;;;10.05;3.80;;;6.50;93.80;;;;;;4972320;28;20053;-78
2020/12/19 07:30:56;;;;;;;13.00;3.63;;;6.50;93.80;;;;;;4971684;28;20490;-75
2020/12/19 07:33:21;;;;;;;13.90;4.45;;;6.50;93.80;;;;;;4972530;28;20058;-75
2020/12/19 07:35:48;;;;;;;10.02;3.15;;;6.50;93.80;;;;;;4973171;28;20085;-76
2020/12/19 07:38:13;;;;;;;12.13;4.00;;;6.50;93.80;;;;;;4971230;28;20023;-77
2020/12/19 07:40:40;;;;;;;10.02;3.95;;;6.60;94.10;;;;;;4972983;28;20093;-76
2020/12/19 07:43:10;;;;;;;8.98;3.47;;;6.60;93.80;;;;;;4972788;28;20070;-75
2020/12/19 07:45:36;;;;;;;10.27;3.35;;;6.60;93.80;;;;;;4973163;28;20027;-76
2020/12/19 07:48:04;;;;;;;9.80;3.25;;;6.60;93.80;;;;;;4971595;28;20042;-76
2020/12/19 07:50:31;;;;;;;13.45;4.20;;;6.60;93.80;;;;;;4972227;28;20077;-76
2020/12/19 07:53:08;;;;;;;11.27;3.63;;;6.60;93.80;;;;;;4971253;28;20538;-76
2020/12/19 07:55:35;;;;;;;8.05;3.40;;;6.60;93.80;;;;;;4972646;28;20107;-76
2020/12/19 07:58:02;;;;;;;9.98;3.65;;;6.60;93.80;;;;;;4980641;28;20053;-76
2020/12/19 08:00:29;;;;;;;12.82;4.22;;;6.60;93.70;;;;;;4991698;28;20026;-76
2020/12/19 08:02:55;;;;;;;12.93;3.45;;;6.60;93.80;;;;;;4993867;28;20049;-76
2020/12/19 08:05:22;;;;;;;10.13;4.50;;;6.60;93.70;;;;;;4995415;28;20474;-76
2020/12/19 08:07:52;;;;;;;11.88;3.97;;;6.60;93.70;;;;;;4994598;28;20023;-76
2020/12/19 08:10:18;;;;;;;13.60;4.65;;;6.60;93.70;;;;;;4994996;28;20117;-78
2020/12/19 08:12:44;;;;;;;9.88;3.47;;;6.60;93.70;;;;;;4977990;28;20073;-76
2020/12/19 08:15:23;;;;;;;10.80;3.88;;;6.60;93.70;;;;;;4995016;28;20050;-82
2020/12/19 08:17:55;;;;;;;9.35;3.78;;;6.60;93.70;;;;;;4995823;28;20025;-77
2020/12/19 08:20:27;;;;;;;8.75;3.63;;;6.60;93.70;;;;;;4995088;28;20030;-75
2020/12/19 08:22:55;;;;;;;11.05;3.35;;;6.60;93.70;;;;;;4995525;28;20026;-77
2020/12/19 08:25:22;;;;;;;7.43;3.38;;;6.60;93.70;;;;;;4993752;28;20483;-76
2020/12/19 08:27:48;;;;;;;12.18;4.28;;;6.60;93.70;;;;;;4977933;28;20018;-77
2020/12/19 08:30:27;;;;;;;13.73;4.00;;;6.60;93.70;;;;;;4977278;28;20026;-77
2020/12/19 08:33:00;;;;;;;10.25;4.20;;;6.60;93.70;;;;;;4978211;28;20362;-76
2020/12/19 08:35:32;;;;;;;15.00;5.95;;;6.60;93.70;;;;;;4995136;28;20030;-77
2020/12/19 08:38:11;;;;;;;16.67;6.05;;;6.70;93.70;;;;;;4994211;28;20022;-76
2020/12/19 08:40:42;;;;;;;17.20;5.65;;;6.70;93.70;;;;;;4994374;28;20045;-76
2020/12/19 08:43:13;;;;;;;14.93;5.50;;;6.70;93.70;;;;;;4995613;28;20022;-76
2020/12/19 08:45:49;;;;;;;14.27;5.32;;;6.80;93.70;;;;;;4995083;28;20029;-76
2020/12/19 08:48:23;;;;;;;15.40;6.13;;;6.80;93.70;;;;;;4993632;28;20113;-77
2020/12/19 08:50:53;;;;;;;11.90;5.38;;;6.90;93.70;;;;;;4994719;28;20038;-76
2020/12/19 08:53:21;;;;;;;11.57;4.72;;;6.90;93.60;;;;;;4994744;28;20467;-76
2020/12/19 08:55:48;;;;;;;14.68;4.57;;;6.90;93.60;;;;;;4995107;28;20018;-75
2020/12/19 08:58:24;;;;;;;13.90;5.47;;;6.90;93.60;;;;;;4994717;28;20054;-77
2020/12/19 09:00:52;;;;;;;14.85;5.60;;;7.00;93.60;;;;;;4995447;28;20470;-76
2020/12/19 09:03:25;;;;;;;14.93;5.10;;;7.00;93.50;;;;;;4994641;28;20050;-77
2020/12/19 09:05:58;;;;;;;15.90;5.97;;;7.10;93.50;;;;;;4995237;28;20027;-76
2020/12/19 09:08:31;;;;;;;13.93;5.20;;;7.20;93.60;;;;;;4993267;28;20026;-76
2020/12/19 09:10:57;;;;;;;13.98;4.93;;;7.20;93.50;;;;;;4995211;28;20034;-76
2020/12/19 09:13:23;;;;;;;15.02;4.47;;;7.20;93.50;;;;;;4993622;28;20033;-76
2020/12/19 09:15:50;;;;;;;13.65;4.80;;;7.20;93.50;;;;;;4994928;28;20367;-76
2020/12/19 09:18:19;;;;;;;10.20;3.05;;;7.30;93.50;;;;;;4994617;28;20185;-77
2020/12/19 09:20:46;;;;;;;9.65;3.70;;;7.40;93.50;;;;;;4994859;28;20053;-76
2020/12/19 09:23:12;;;;;;;11.40;4.03;;;7.40;93.50;;;;;;4993912;28;20034;-77
2020/12/19 09:25:38;;;;;;;11.15;3.83;;;7.40;93.40;;;;;;4993149;28;20022;-76
2020/12/19 09:28:05;;;;;;;10.05;3.90;;;7.50;93.40;;;;;;4995750;28;20037;-77
2020/12/19 09:30:32;;;;;;;12.50;4.40;;;7.50;93.40;;;;;;4993499;28;20035;-77
2020/12/19 09:32:58;;;;;;;13.05;3.80;;;7.60;93.40;;;;;;4977860;28;20438;-76
2020/12/19 09:35:28;;;;;;;11.60;4.32;;;7.60;93.40;;;;;;4995216;28;20471;-77
2020/12/19 09:37:54;;;;;;;10.85;3.67;;;7.70;93.40;;;;;;4997493;28;20374;-76
2020/12/19 09:40:20;;;;;;;13.48;4.75;;;7.70;93.40;;;;;;4977989;28;20049;-77
2020/12/19 09:42:46;;;;;;;12.48;3.92;;;7.70;93.30;;;;;;4996621;28;20038;-76
2020/12/19 09:45:12;;;;;;;12.52;4.40;;;7.80;93.40;;;;;;4995239;28;20036;-77
2020/12/19 09:47:41;;;;;;;12.70;4.25;;;7.80;93.40;;;;;;4996505;28;20101;-77
2020/12/19 09:50:11;;;;;;;14.68;4.50;;;7.80;93.40;;;;;;4979617;28;20455;-77
2020/12/19 09:52:38;;;;;;;16.88;4.90;;;7.90;93.40;;;;;;4995823;28;20121;-77
2020/12/19 09:55:08;;;;;;;13.15;4.72;;;7.90;93.40;;;;;;4998829;28;20022;-77
2020/12/19 09:57:34;;;;;;;11.52;4.18;;;7.90;93.40;;;;;;4997785;28;20100;-78
2020/12/19 09:59:59;;;;;;;13.38;4.55;;;8.00;93.40;;;;;;5002634;28;20109;-75
2020/12/19 10:02:26;;;;;;;10.05;3.85;;;8.00;93.40;;;;;;4997225;28;20022;-78
2020/12/19 10:04:51;;;;;;;14.75;5.70;;;8.10;93.70;;;;;;4981480;28;20026;-77
2020/12/19 10:07:17;;;;;;;13.20;4.93;;;8.10;93.60;;;;;;4998429;28;20090;-76
2020/12/19 10:09:43;;;;;;;19.20;5.53;;;8.20;93.40;;;;;;4993952;28;20126;-78
2020/12/19 10:12:09;;;;;;;14.35;5.82;;;8.20;93.40;;;;;;4993968;28;20486;-76
2020/12/19 10:14:35;;;;;;;12.60;4.57;;;8.30;93.40;;;;;;4991873;28;20029;-76
2020/12/19 10:17:00;;;;;;;14.85;5.00;;;8.30;93.30;;;;;;4992356;28;20036;-78
2020/12/19 10:19:26;;;;;;;14.65;5.00;;;8.40;93.30;;;;;;4993274;28;20065;-77
2020/12/19 10:21:52;;;;;;;14.43;4.63;;;8.40;93.30;;;;;;4993547;28;20033;-77
2020/12/19 10:24:17;;;;;;;13.80;4.65;;;8.50;93.30;;;;;;4992166;28;20044;-77
2020/12/19 10:26:49;;;;;;;13.90;5.15;;;8.60;93.30;;;;;;4975480;28;20108;-76
2020/12/19 10:29:15;;;;;;;15.00;5.40;;;8.70;93.20;;;;;;4993283;28;20027;-77
2020/12/19 10:31:41;;;;;;;14.77;5.20;;;8.70;93.20;;;;;;4992563;28;20018;-77
2020/12/19 10:34:07;;;;;;;16.73;5.38;;;8.80;93.20;;;;;;4993331;28;20058;-76
2020/12/19 10:36:33;;;;;;;16.42;4.82;;;8.90;93.20;;;;;;4975251;28;20470;-76
2020/12/19 10:38:59;;;;;;;13.30;4.82;;;8.90;93.20;;;;;;4993239;28;20440;-76
2020/12/19 10:41:25;;;;;;;16.33;5.47;;;9.00;93.20;;;;;;4992761;28;20070;-76
2020/12/19 10:43:51;;;;;;;17.73;5.53;;;9.00;93.10;;;;;;4993487;28;20121;-77
2020/12/19 10:46:21;;;;;;;15.45;4.65;;;9.10;93.10;;;;;;4975302;28;20029;-77
2020/12/19 10:48:47;;;;;;;12.75;5.45;;;9.20;93.10;;;;;;4993027;28;20084;-77
2020/12/19 10:51:13;;;;;;;11.20;4.88;;;9.20;93.10;;;;;;4993011;28;20216;-78
2020/12/19 10:53:43;;;;;;;14.20;5.25;;;9.20;93.00;;;;;;4992253;28;20064;-77
2020/12/19 10:56:17;;;;;;;13.98;4.90;;;9.30;93.00;;;;;;4992901;28;20045;-78
2020/12/19 10:58:42;;;;;;;16.38;5.28;;;9.40;93.00;;;;;;4987714;28;20117;-77
2020/12/19 11:01:08;;;;;;;14.88;4.82;;;9.40;93.00;;;;;;4973406;28;20026;-78
2020/12/19 11:03:33;;;;;;;13.60;4.63;;;9.40;93.00;;;;;;4973513;28;20387;-78
2020/12/19 11:05:59;;;;;;;16.35;5.03;;;9.50;93.00;;;;;;4973491;28;20061;-77
2020/12/19 11:08:25;;;;;;;8.73;4.00;;;9.50;93.00;;;;;;4972242;28;20081;-79
2020/12/19 11:10:50;;;;;;;13.80;4.13;;;9.50;92.90;;;;;;4972660;28;20321;-77
2020/12/19 11:13:16;;;;;;;11.13;4.03;;;9.60;93.00;;;;;;4973672;28;20054;-77
2020/12/19 11:15:42;;;;;;;16.50;5.22;;;9.60;92.90;;;;;;4973070;28;20084;-78
2020/12/19 11:18:07;;;;;;;8.48;3.67;;;9.70;92.90;;;;;;4973687;28;20058;-78
2020/12/19 11:20:33;;;;;;;16.70;5.15;;;9.70;92.90;;;;;;4971862;28;20038;-78
2020/12/19 11:22:59;;;;;;;8.27;3.38;;;9.70;92.90;;;;;;4972665;28;20026;-78
2020/12/19 11:25:24;;;;;;;11.52;3.95;;;9.80;92.90;;;;;;4972149;28;20411;-80
2020/12/19 11:27:50;;;;;;;12.90;4.85;;;9.80;92.90;;;;;;4972552;28;20518;-77
2020/12/19 11:30:15;;;;;;;11.00;4.38;;;9.80;92.80;;;;;;4972130;28;20073;-77
2020/12/19 11:32:41;;;;;;;10.55;3.97;;;9.90;92.80;;;;;;4972742;28;20058;-77
2020/12/19 11:35:08;;;;;;;12.48;4.07;;;9.90;92.80;;;;;;4972701;28;20077;-77
2020/12/19 11:37:33;;;;;;;11.90;4.32;;;10.00;92.80;;;;;;4975746;28;20074;-78
2020/12/19 11:39:59;;;;;;;16.20;5.38;;;10.00;92.70;;;;;;4977722;28;20376;-77
2020/12/19 11:42:25;;;;;;;12.43;5.15;;;10.10;92.80;;;;;;4978155;28;20062;-83
2020/12/19 11:44:51;;;;;;;12.30;4.07;;;10.20;92.90;;;;;;4977051;28;20023;-77
2020/12/19 11:47:17;;;;;;;16.25;4.85;;;10.30;92.60;;;;;;4978601;28;20026;-77
2020/12/19 11:49:42;;;;;;;10.38;3.53;;;10.30;92.60;;;;;;4977605;28;20051;-77
2020/12/19 11:52:09;;;;;;;10.90;4.13;;;10.40;92.60;;;;;;4979903;28;20027;-77
2020/12/19 11:54:38;;;;;;;12.93;5.32;;;10.50;92.50;;;;;;4978762;28;20490;-77
2020/12/19 11:57:05;;;;;;;13.15;4.13;;;10.60;92.50;;;;;;4977836;28;20390;-78
2020/12/19 11:59:31;;;;;;;15.80;5.93;;;10.60;92.50;;;;;;4996847;28;20027;-77
2020/12/19 12:02:01;;;;;;;13.27;5.28;;;10.60;92.50;;;;;;4997775;28;20104;-77
2020/12/19 12:04:27;;;;;;;13.70;4.22;;;10.60;92.50;;;;;;4997691;28;20022;-84
2020/12/19 12:06:53;;;;;;;12.18;4.38;;;10.70;92.60;;;;;;4999799;28;20348;-76
2020/12/19 12:09:19;;;;;;;10.05;4.55;;;10.70;92.60;;;;;;5003067;28;20037;-76
2020/12/19 12:11:45;;;;;;;15.65;4.53;;;10.80;92.50;;;;;;4998734;28;20459;-77
2020/12/19 12:14:10;;;;;;;12.82;4.70;;;10.90;92.50;;;;;;4985244;28;20053;-77
2020/12/19 12:16:36;;;;;;;11.32;4.22;;;11.00;92.40;;;;;;5001635;28;20026;-75
2020/12/19 12:19:02;;;;;;;8.65;3.92;;;11.00;92.30;;;;;;4995599;28;20110;-76
2020/12/19 12:21:41;;;;;;;13.70;4.32;;;11.10;92.30;;;;;;4995593;28;20018;-75
2020/12/19 12:24:07;;;;;;;10.32;4.32;;;11.20;92.30;;;;;;4994380;28;20019;-75
2020/12/19 12:26:33;;;;;;;10.13;3.47;;;11.20;92.30;;;;;;4995017;28;20054;-76
2020/12/19 12:29:02;;;;;;;8.57;3.88;;;11.20;92.30;;;;;;4995199;28;20030;-76
2020/12/19 12:31:30;;;;;;;10.57;4.18;;;11.10;92.30;;;;;;4977110;28;20467;-75
2020/12/19 12:33:56;;;;;;;14.88;4.57;;;11.20;92.40;;;;;;4995463;28;20208;-77
2020/12/19 12:36:24;;;;;;;12.43;4.72;;;11.10;92.40;;;;;;4995219;28;20145;-75
2020/12/19 12:38:50;;;;;;;15.73;4.07;;;11.10;92.40;;;;;;4993576;28;20065;-77
2020/12/19 12:41:16;;;;;;;9.88;3.85;;;11.10;92.40;;;;;;4995451;28;20116;-75
2020/12/19 12:43:42;;;;;;;8.43;3.67;;;11.10;92.40;;;;;;4994510;28;20041;-75
2020/12/19 12:46:16;;;;;;;12.57;4.22;;;11.10;92.50;;;;;;4995334;28;20022;-76
2020/12/19 12:48:42;;;;;;;14.93;4.88;;;11.20;92.50;;;;;;4993626;28;20033;-76
2020/12/19 12:51:14;;;;;;;11.80;4.80;;;11.10;92.50;;;;;;4994063;28;20113;-76